sensor_id;sensor_type;location;lat;lon;timestamp;temperature;humidity
11188;DHT22;5650;52.700;7.306;2023-03-01T00:01:31;-0.50;99.90
11188;DHT22;5650;52.700;7.306;2023-03-01T00:04:05;-0.50;99.90
11188;DHT22;5650;52.700;7.306;2023-03-01T00:06:32;-0.50;99.90
11188;DHT22;5650;52.700;7.306;2023-03-01T00:09:07;-0.50;99.90
11188;DHT22;5650;52.700;7.306;2023-03-01T00:11:37;-0.50;99.90
11188;DHT22;5650;52.700;7.306;2023-03-01T00:14:08;-0.60;99.90
11188;DHT22;5650;52.700;7.306;2023-03-01T00:16:36;-0.60;99.90
11188;DHT22;5650;52.700;7.306;2023-03-01T00:19:08;-0.60;99.90
11188;DHT22;5650;52.700;7.306;2023-03-01T00:21:37;-0.70;99.90
11188;DHT22;5650;52.700;7.306;2023-03-01T00:24:07;-0.70;99.90
11188;DHT22;5650;52.700;7.306;2023-03-01T00:26:35;-0.70;99.90
11188;DHT22;5650;52.700;7.306;2023-03-01T00:29:06;-0.70;99.90
11188;DHT22;5650;52.700;7.306;2023-03-01T00:31:33;-0.70;99.90
11188;DHT22;5650;52.700;7.306;2023-03-01T00:34:03;-0.70;99.90
11188;DHT22;5650;52.700;7.306;2023-03-01T00:36:32;-0.80;99.90
11188;DHT22;5650;52.700;7.306;2023-03-01T00:39:03;-0.70;99.90
11188;DHT22;5650;52.700;7.306;2023-03-01T00:41:32;-0.70;99.90
11188;DHT22;5650;52.700;7.306;2023-03-01T00:44:00;-0.80;99.90
11188;DHT22;5650;52.700;7.306;2023-03-01T00:46:27;-0.80;99.90
11188;DHT22;5650;52.700;7.306;2023-03-01T00:48:55;-0.80;99.90
11188;DHT22;5650;52.700;7.306;2023-03-01T00:51:28;-0.80;99.90
11188;DHT22;5650;52.700;7.306;2023-03-01T00:53:56;-0.90;99.90
11188;DHT22;5650;52.700;7.306;2023-03-01T00:56:24;-0.90;99.90
11188;DHT22;5650;52.700;7.306;2023-03-01T00:58:53;-0.90;99.90
11188;DHT22;5650;52.700;7.306;2023-03-01T01:01:22;-0.90;99.90
11188;DHT22;5650;52.700;7.306;2023-03-01T01:03:54;-1.00;99.90
11188;DHT22;5650;52.700;7.306;2023-03-01T01:06:24;-1.00;99.90
11188;DHT22;5650;52.700;7.306;2023-03-01T01:08:52;-1.00;99.90
11188;DHT22;5650;52.700;7.306;2023-03-01T01:11:20;-1.00;99.90
11188;DHT22;5650;52.700;7.306;2023-03-01T01:13:48;-1.10;99.90
11188;DHT22;5650;52.700;7.306;2023-03-01T01:16:21;-1.10;99.90
11188;DHT22;5650;52.700;7.306;2023-03-01T01:18:56;-1.10;99.90
11188;DHT22;5650;52.700;7.306;2023-03-01T01:21:24;-1.10;99.90
11188;DHT22;5650;52.700;7.306;2023-03-01T01:23:52;-1.10;99.90
11188;DHT22;5650;52.700;7.306;2023-03-01T01:26:21;-1.10;99.90
11188;DHT22;5650;52.700;7.306;2023-03-01T01:28:49;-1.10;99.90
11188;DHT22;5650;52.700;7.306;2023-03-01T01:31:19;-1.20;99.90
11188;DHT22;5650;52.700;7.306;2023-03-01T01:33:49;-1.20;99.90
11188;DHT22;5650;52.700;7.306;2023-03-01T01:36:17;-1.20;99.90
11188;DHT22;5650;52.700;7.306;2023-03-01T01:38:45;-1.20;99.90
11188;DHT22;5650;52.700;7.306;2023-03-01T01:41:13;-1.20;99.90
11188;DHT22;5650;52.700;7.306;2023-03-01T01:43:48;-1.20;99.90
11188;DHT22;5650;52.700;7.306;2023-03-01T01:46:23;-1.20;99.90
11188;DHT22;5650;52.700;7.306;2023-03-01T01:48:55;-1.20;99.90
11188;DHT22;5650;52.700;7.306;2023-03-01T01:51:29;-1.20;99.90
11188;DHT22;5650;52.700;7.306;2023-03-01T01:54:13;-1.30;99.90
11188;DHT22;5650;52.700;7.306;2023-03-01T01:56:44;-1.30;99.90
11188;DHT22;5650;52.700;7.306;2023-03-01T01:59:14;-1.30;99.90
11188;DHT22;5650;52.700;7.306;2023-03-01T02:01:43;-1.30;99.90
11188;DHT22;5650;52.700;7.306;2023-03-01T02:04:10;-1.30;99.90
11188;DHT22;5650;52.700;7.306;2023-03-01T02:06:41;-1.40;99.90
11188;DHT22;5650;52.700;7.306;2023-03-01T02:09:13;-1.40;99.90
11188;DHT22;5650;52.700;7.306;2023-03-01T02:11:44;-1.40;99.90
11188;DHT22;5650;52.700;7.306;2023-03-01T02:14:19;-1.50;99.90
11188;DHT22;5650;52.700;7.306;2023-03-01T02:16:50;-1.50;99.90
11188;DHT22;5650;52.700;7.306;2023-03-01T02:19:27;-1.50;99.90
11188;DHT22;5650;52.700;7.306;2023-03-01T02:22:03;-1.50;99.90
11188;DHT22;5650;52.700;7.306;2023-03-01T02:24:38;-1.50;99.90
11188;DHT22;5650;52.700;7.306;2023-03-01T02:27:08;-1.50;99.90
11188;DHT22;5650;52.700;7.306;2023-03-01T02:29:37;-1.50;99.90
11188;DHT22;5650;52.700;7.306;2023-03-01T02:32:05;-1.50;99.90
11188;DHT22;5650;52.700;7.306;2023-03-01T02:34:33;-1.50;99.90
11188;DHT22;5650;52.700;7.306;2023-03-01T02:37:02;-1.50;99.90
11188;DHT22;5650;52.700;7.306;2023-03-01T02:39:33;-1.50;99.90
11188;DHT22;5650;52.700;7.306;2023-03-01T02:42:02;-1.60;99.90
11188;DHT22;5650;52.700;7.306;2023-03-01T02:44:30;-1.60;99.90
11188;DHT22;5650;52.700;7.306;2023-03-01T02:47:05;-1.60;99.90
11188;DHT22;5650;52.700;7.306;2023-03-01T02:49:37;-1.60;99.90
11188;DHT22;5650;52.700;7.306;2023-03-01T02:52:26;-1.60;99.90
11188;DHT22;5650;52.700;7.306;2023-03-01T02:54:59;-1.60;99.90
11188;DHT22;5650;52.700;7.306;2023-03-01T02:57:31;-1.60;99.90
11188;DHT22;5650;52.700;7.306;2023-03-01T03:00:12;-1.60;99.90
11188;DHT22;5650;52.700;7.306;2023-03-01T03:02:47;-1.60;99.90
11188;DHT22;5650;52.700;7.306;2023-03-01T03:05:23;-1.70;99.90
11188;DHT22;5650;52.700;7.306;2023-03-01T03:07:54;-1.70;99.90
11188;DHT22;5650;52.700;7.306;2023-03-01T03:10:24;-1.70;99.90
11188;DHT22;5650;52.700;7.306;2023-03-01T03:12:56;-1.70;99.90
11188;DHT22;5650;52.700;7.306;2023-03-01T03:15:24;-1.70;99.90
11188;DHT22;5650;52.700;7.306;2023-03-01T03:17:56;-1.80;99.90
11188;DHT22;5650;52.700;7.306;2023-03-01T03:20:32;-1.80;99.90
11188;DHT22;5650;52.700;7.306;2023-03-01T03:22:59;-1.80;99.90
11188;DHT22;5650;52.700;7.306;2023-03-01T03:25:30;-1.80;99.90
11188;DHT22;5650;52.700;7.306;2023-03-01T03:27:57;-1.80;99.90
11188;DHT22;5650;52.700;7.306;2023-03-01T03:30:27;-1.80;99.90
11188;DHT22;5650;52.700;7.306;2023-03-01T03:32:57;-1.80;99.90
11188;DHT22;5650;52.700;7.306;2023-03-01T03:35:26;-1.80;99.90
11188;DHT22;5650;52.700;7.306;2023-03-01T03:37:56;-1.90;99.90
11188;DHT22;5650;52.700;7.306;2023-03-01T03:40:31;-1.90;99.90
11188;DHT22;5650;52.700;7.306;2023-03-01T03:42:58;-1.90;99.90
11188;DHT22;5650;52.700;7.306;2023-03-01T03:45:26;-1.90;99.90
11188;DHT22;5650;52.700;7.306;2023-03-01T03:47:57;-2.00;99.90
11188;DHT22;5650;52.700;7.306;2023-03-01T03:50:25;-2.00;99.90
11188;DHT22;5650;52.700;7.306;2023-03-01T03:52:52;-2.00;99.90
11188;DHT22;5650;52.700;7.306;2023-03-01T03:55:19;-2.00;99.90
11188;DHT22;5650;52.700;7.306;2023-03-01T03:57:48;-2.00;99.90
11188;DHT22;5650;52.700;7.306;2023-03-01T04:00:18;-2.10;99.90
11188;DHT22;5650;52.700;7.306;2023-03-01T04:02:47;-2.10;99.90
11188;DHT22;5650;52.700;7.306;2023-03-01T04:05:17;-2.10;99.90
11188;DHT22;5650;52.700;7.306;2023-03-01T04:07:45;-2.10;99.90
11188;DHT22;5650;52.700;7.306;2023-03-01T04:10:14;-2.10;99.90
11188;DHT22;5650;52.700;7.306;2023-03-01T04:12:42;-2.20;99.90
11188;DHT22;5650;52.700;7.306;2023-03-01T04:15:12;-2.20;99.90
11188;DHT22;5650;52.700;7.306;2023-03-01T04:17:44;-2.20;99.90
11188;DHT22;5650;52.700;7.306;2023-03-01T04:20:19;-2.20;99.90
11188;DHT22;5650;52.700;7.306;2023-03-01T04:23:10;-2.20;99.90
11188;DHT22;5650;52.700;7.306;2023-03-01T04:25:40;-2.20;99.90
11188;DHT22;5650;52.700;7.306;2023-03-01T04:28:08;-2.20;99.90
11188;DHT22;5650;52.700;7.306;2023-03-01T04:30:36;-2.20;99.90
11188;DHT22;5650;52.700;7.306;2023-03-01T04:33:05;-2.20;99.90
11188;DHT22;5650;52.700;7.306;2023-03-01T04:35:34;-2.20;99.90
11188;DHT22;5650;52.700;7.306;2023-03-01T04:38:02;-2.20;99.90
11188;DHT22;5650;52.700;7.306;2023-03-01T04:40:29;-2.30;99.90
11188;DHT22;5650;52.700;7.306;2023-03-01T04:42:57;-2.30;99.90
11188;DHT22;5650;52.700;7.306;2023-03-01T04:45:24;-2.30;99.90
11188;DHT22;5650;52.700;7.306;2023-03-01T04:47:52;-2.30;99.90
11188;DHT22;5650;52.700;7.306;2023-03-01T04:50:19;-2.40;99.90
11188;DHT22;5650;52.700;7.306;2023-03-01T04:52:50;-2.40;99.90
11188;DHT22;5650;52.700;7.306;2023-03-01T04:55:17;-2.40;99.90
11188;DHT22;5650;52.700;7.306;2023-03-01T04:57:44;-2.40;99.90
11188;DHT22;5650;52.700;7.306;2023-03-01T05:00:14;-2.40;99.90
11188;DHT22;5650;52.700;7.306;2023-03-01T05:02:52;-2.40;99.90
11188;DHT22;5650;52.700;7.306;2023-03-01T05:05:25;-2.40;99.90
11188;DHT22;5650;52.700;7.306;2023-03-01T05:07:56;-2.40;99.90
11188;DHT22;5650;52.700;7.306;2023-03-01T05:10:30;-2.40;99.90
11188;DHT22;5650;52.700;7.306;2023-03-01T05:12:58;-2.40;99.90
11188;DHT22;5650;52.700;7.306;2023-03-01T05:15:27;-2.30;99.90
11188;DHT22;5650;52.700;7.306;2023-03-01T05:17:56;-2.40;99.90
11188;DHT22;5650;52.700;7.306;2023-03-01T05:20:24;-2.40;99.90
11188;DHT22;5650;52.700;7.306;2023-03-01T05:22:56;-2.40;99.90
11188;DHT22;5650;52.700;7.306;2023-03-01T05:25:28;-2.40;99.90
11188;DHT22;5650;52.700;7.306;2023-03-01T05:27:58;-2.40;99.90
11188;DHT22;5650;52.700;7.306;2023-03-01T05:30:30;-2.40;99.90
11188;DHT22;5650;52.700;7.306;2023-03-01T05:32:58;-2.40;99.90
11188;DHT22;5650;52.700;7.306;2023-03-01T05:35:26;-2.50;99.90
11188;DHT22;5650;52.700;7.306;2023-03-01T05:37:55;-2.50;99.90
11188;DHT22;5650;52.700;7.306;2023-03-01T05:40:23;-2.50;99.90
11188;DHT22;5650;52.700;7.306;2023-03-01T05:42:53;-2.50;99.90
11188;DHT22;5650;52.700;7.306;2023-03-01T05:45:22;-2.50;99.90
11188;DHT22;5650;52.700;7.306;2023-03-01T05:47:51;-2.50;99.90
11188;DHT22;5650;52.700;7.306;2023-03-01T05:50:20;-2.50;99.90
11188;DHT22;5650;52.700;7.306;2023-03-01T05:52:49;-2.60;99.90
11188;DHT22;5650;52.700;7.306;2023-03-01T05:55:18;-2.60;99.90
11188;DHT22;5650;52.700;7.306;2023-03-01T05:57:46;-2.60;99.90
11188;DHT22;5650;52.700;7.306;2023-03-01T06:00:17;-2.60;99.90
11188;DHT22;5650;52.700;7.306;2023-03-01T06:02:45;-2.70;99.90
11188;DHT22;5650;52.700;7.306;2023-03-01T06:05:13;-2.70;99.90
11188;DHT22;5650;52.700;7.306;2023-03-01T06:07:43;-2.70;99.90
11188;DHT22;5650;52.700;7.306;2023-03-01T06:10:12;-2.60;99.90
11188;DHT22;5650;52.700;7.306;2023-03-01T06:12:42;-2.60;99.90
11188;DHT22;5650;52.700;7.306;2023-03-01T06:15:15;-2.60;99.90
11188;DHT22;5650;52.700;7.306;2023-03-01T06:17:44;-2.60;99.90
11188;DHT22;5650;52.700;7.306;2023-03-01T06:20:14;-2.60;99.90
11188;DHT22;5650;52.700;7.306;2023-03-01T06:22:42;-2.60;99.90
11188;DHT22;5650;52.700;7.306;2023-03-01T06:25:10;-2.60;99.90
11188;DHT22;5650;52.700;7.306;2023-03-01T06:27:38;-2.60;99.90
11188;DHT22;5650;52.700;7.306;2023-03-01T06:30:09;-2.60;99.90
11188;DHT22;5650;52.700;7.306;2023-03-01T06:32:39;-2.60;99.90
11188;DHT22;5650;52.700;7.306;2023-03-01T06:35:08;-2.70;99.90
11188;DHT22;5650;52.700;7.306;2023-03-01T06:37:36;-2.70;99.90
11188;DHT22;5650;52.700;7.306;2023-03-01T06:40:04;-2.70;99.90
11188;DHT22;5650;52.700;7.306;2023-03-01T06:42:34;-2.60;99.90
11188;DHT22;5650;52.700;7.306;2023-03-01T06:45:05;-2.60;99.90
11188;DHT22;5650;52.700;7.306;2023-03-01T06:47:33;-2.60;99.90
11188;DHT22;5650;52.700;7.306;2023-03-01T06:50:03;-2.50;99.90
11188;DHT22;5650;52.700;7.306;2023-03-01T06:52:30;-2.50;99.90
11188;DHT22;5650;52.700;7.306;2023-03-01T06:54:58;-2.40;99.90
11188;DHT22;5650;52.700;7.306;2023-03-01T06:57:25;-2.40;99.90
11188;DHT22;5650;52.700;7.306;2023-03-01T06:59:52;-2.30;99.90
11188;DHT22;5650;52.700;7.306;2023-03-01T07:02:19;-2.30;99.90
11188;DHT22;5650;52.700;7.306;2023-03-01T07:04:47;-2.20;99.90
11188;DHT22;5650;52.700;7.306;2023-03-01T07:07:17;-2.20;99.90
11188;DHT22;5650;52.700;7.306;2023-03-01T07:09:44;-2.10;99.90
11188;DHT22;5650;52.700;7.306;2023-03-01T07:12:18;-2.00;99.90
11188;DHT22;5650;52.700;7.306;2023-03-01T07:14:45;-2.00;99.90
11188;DHT22;5650;52.700;7.306;2023-03-01T07:17:12;-1.90;99.90
11188;DHT22;5650;52.700;7.306;2023-03-01T07:19:39;-1.90;99.90
11188;DHT22;5650;52.700;7.306;2023-03-01T07:22:07;-1.80;99.90
11188;DHT22;5650;52.700;7.306;2023-03-01T07:24:36;-1.60;99.90
11188;DHT22;5650;52.700;7.306;2023-03-01T07:27:03;-1.40;99.90
11188;DHT22;5650;52.700;7.306;2023-03-01T07:29:30;-1.10;99.90
11188;DHT22;5650;52.700;7.306;2023-03-01T07:32:04;-0.70;99.90
11188;DHT22;5650;52.700;7.306;2023-03-01T07:34:32;-0.20;99.90
11188;DHT22;5650;52.700;7.306;2023-03-01T07:36:59;0.20;99.90
11188;DHT22;5650;52.700;7.306;2023-03-01T07:39:27;0.60;99.90
11188;DHT22;5650;52.700;7.306;2023-03-01T07:41:55;0.90;99.90
11188;DHT22;5650;52.700;7.306;2023-03-01T07:44:32;1.20;99.90
11188;DHT22;5650;52.700;7.306;2023-03-01T07:47:02;1.40;99.90
11188;DHT22;5650;52.700;7.306;2023-03-01T07:49:29;1.60;99.90
11188;DHT22;5650;52.700;7.306;2023-03-01T07:52:02;1.70;99.90
11188;DHT22;5650;52.700;7.306;2023-03-01T07:54:32;2.00;99.90
11188;DHT22;5650;52.700;7.306;2023-03-01T07:57:10;2.20;99.90
11188;DHT22;5650;52.700;7.306;2023-03-01T07:59:37;2.60;99.90
11188;DHT22;5650;52.700;7.306;2023-03-01T08:02:07;3.00;99.90
11188;DHT22;5650;52.700;7.306;2023-03-01T08:04:38;3.40;99.90
11188;DHT22;5650;52.700;7.306;2023-03-01T08:07:05;3.70;99.90
11188;DHT22;5650;52.700;7.306;2023-03-01T08:09:35;4.10;99.90
11188;DHT22;5650;52.700;7.306;2023-03-01T08:12:03;4.40;99.90
11188;DHT22;5650;52.700;7.306;2023-03-01T08:14:33;4.60;99.90
11188;DHT22;5650;52.700;7.306;2023-03-01T08:17:03;4.80;99.90
11188;DHT22;5650;52.700;7.306;2023-03-01T08:19:30;5.10;99.90
11188;DHT22;5650;52.700;7.306;2023-03-01T08:21:58;5.30;99.90
11188;DHT22;5650;52.700;7.306;2023-03-01T08:24:26;5.60;99.90
11188;DHT22;5650;52.700;7.306;2023-03-01T08:27:09;5.90;99.90
11188;DHT22;5650;52.700;7.306;2023-03-01T08:29:41;6.20;99.90
11188;DHT22;5650;52.700;7.306;2023-03-01T08:32:11;6.30;99.90
11188;DHT22;5650;52.700;7.306;2023-03-01T08:34:41;6.50;99.90
11188;DHT22;5650;52.700;7.306;2023-03-01T08:37:08;6.50;99.90
11188;DHT22;5650;52.700;7.306;2023-03-01T08:39:35;6.20;99.90
11188;DHT22;5650;52.700;7.306;2023-03-01T08:42:05;5.60;99.90
11188;DHT22;5650;52.700;7.306;2023-03-01T08:44:32;5.00;99.90
11188;DHT22;5650;52.700;7.306;2023-03-01T08:47:04;4.60;99.90
11188;DHT22;5650;52.700;7.306;2023-03-01T08:49:32;4.30;99.90
11188;DHT22;5650;52.700;7.306;2023-03-01T08:51:59;4.10;99.90
11188;DHT22;5650;52.700;7.306;2023-03-01T08:54:26;3.90;99.90
11188;DHT22;5650;52.700;7.306;2023-03-01T08:57:01;3.80;99.90
11188;DHT22;5650;52.700;7.306;2023-03-01T08:59:31;3.80;99.90
11188;DHT22;5650;52.700;7.306;2023-03-01T09:02:04;3.70;99.90
11188;DHT22;5650;52.700;7.306;2023-03-01T09:04:31;3.70;99.90
11188;DHT22;5650;52.700;7.306;2023-03-01T09:07:02;3.70;99.90
11188;DHT22;5650;52.700;7.306;2023-03-01T09:09:29;3.70;99.90
11188;DHT22;5650;52.700;7.306;2023-03-01T09:12:00;3.80;99.90
11188;DHT22;5650;52.700;7.306;2023-03-01T09:14:27;3.80;99.90
11188;DHT22;5650;52.700;7.306;2023-03-01T09:16:57;3.90;99.90
11188;DHT22;5650;52.700;7.306;2023-03-01T09:19:30;4.00;99.90
11188;DHT22;5650;52.700;7.306;2023-03-01T09:21:57;4.00;99.90
11188;DHT22;5650;52.700;7.306;2023-03-01T09:24:27;4.10;99.90
11188;DHT22;5650;52.700;7.306;2023-03-01T09:26:57;4.20;99.90
11188;DHT22;5650;52.700;7.306;2023-03-01T09:29:25;4.20;99.90
11188;DHT22;5650;52.700;7.306;2023-03-01T09:31:53;4.30;99.90
11188;DHT22;5650;52.700;7.306;2023-03-01T09:34:24;4.30;99.90
11188;DHT22;5650;52.700;7.306;2023-03-01T09:37:02;4.30;99.90
11188;DHT22;5650;52.700;7.306;2023-03-01T09:39:35;4.30;99.90
11188;DHT22;5650;52.700;7.306;2023-03-01T09:42:03;4.40;99.90
11188;DHT22;5650;52.700;7.306;2023-03-01T09:44:37;4.40;99.90
11188;DHT22;5650;52.700;7.306;2023-03-01T09:47:05;4.50;99.90
11188;DHT22;5650;52.700;7.306;2023-03-01T09:49:41;4.60;99.90
11188;DHT22;5650;52.700;7.306;2023-03-01T09:52:23;4.60;99.90
11188;DHT22;5650;52.700;7.306;2023-03-01T09:54:55;4.70;99.90
11188;DHT22;5650;52.700;7.306;2023-03-01T09:57:30;4.80;99.90
11188;DHT22;5650;52.700;7.306;2023-03-01T10:00:33;4.90;99.90
11188;DHT22;5650;52.700;7.306;2023-03-01T10:03:12;5.00;99.90
11188;DHT22;5650;52.700;7.306;2023-03-01T10:05:47;5.00;99.90
11188;DHT22;5650;52.700;7.306;2023-03-01T10:08:36;5.10;99.90
11188;DHT22;5650;52.700;7.306;2023-03-01T10:11:20;5.10;99.90
11188;DHT22;5650;52.700;7.306;2023-03-01T10:13:54;5.20;99.90
11188;DHT22;5650;52.700;7.306;2023-03-01T10:16:28;5.20;99.90
11188;DHT22;5650;52.700;7.306;2023-03-01T10:19:04;5.30;99.90
11188;DHT22;5650;52.700;7.306;2023-03-01T10:21:36;5.30;99.90
11188;DHT22;5650;52.700;7.306;2023-03-01T10:24:13;5.30;99.90
11188;DHT22;5650;52.700;7.306;2023-03-01T10:26:51;5.40;99.90
11188;DHT22;5650;52.700;7.306;2023-03-01T10:29:25;5.40;99.90
11188;DHT22;5650;52.700;7.306;2023-03-01T10:32:00;5.50;99.90
11188;DHT22;5650;52.700;7.306;2023-03-01T10:34:35;5.50;99.90
11188;DHT22;5650;52.700;7.306;2023-03-01T10:37:11;5.50;99.90
11188;DHT22;5650;52.700;7.306;2023-03-01T10:40:01;5.50;99.90
11188;DHT22;5650;52.700;7.306;2023-03-01T10:42:35;5.60;99.90
11188;DHT22;5650;52.700;7.306;2023-03-01T10:45:30;5.60;99.90
11188;DHT22;5650;52.700;7.306;2023-03-01T10:48:08;5.60;99.90
11188;DHT22;5650;52.700;7.306;2023-03-01T10:50:38;5.60;99.90
11188;DHT22;5650;52.700;7.306;2023-03-01T10:53:21;5.60;99.90
11188;DHT22;5650;52.700;7.306;2023-03-01T10:56:07;5.70;99.90
11188;DHT22;5650;52.700;7.306;2023-03-01T10:58:36;5.80;99.90
11188;DHT22;5650;52.700;7.306;2023-03-01T11:01:25;5.80;99.90
11188;DHT22;5650;52.700;7.306;2023-03-01T11:04:11;5.90;99.90
11188;DHT22;5650;52.700;7.306;2023-03-01T11:06:43;5.90;99.90
11188;DHT22;5650;52.700;7.306;2023-03-01T11:09:15;5.90;99.90
11188;DHT22;5650;52.700;7.306;2023-03-01T11:11:44;6.00;99.90
11188;DHT22;5650;52.700;7.306;2023-03-01T11:14:17;6.10;99.90
11188;DHT22;5650;52.700;7.306;2023-03-01T11:17:02;6.10;99.90
11188;DHT22;5650;52.700;7.306;2023-03-01T11:19:33;6.20;99.90
11188;DHT22;5650;52.700;7.306;2023-03-01T11:22:04;6.20;99.90
11188;DHT22;5650;52.700;7.306;2023-03-01T11:24:39;6.30;99.90
11188;DHT22;5650;52.700;7.306;2023-03-01T11:27:16;6.40;99.90
11188;DHT22;5650;52.700;7.306;2023-03-01T11:29:46;6.40;99.90
11188;DHT22;5650;52.700;7.306;2023-03-01T11:32:16;6.40;99.90
11188;DHT22;5650;52.700;7.306;2023-03-01T11:34:51;6.50;99.90
11188;DHT22;5650;52.700;7.306;2023-03-01T11:37:26;6.60;99.90
11188;DHT22;5650;52.700;7.306;2023-03-01T11:40:05;6.70;99.90
11188;DHT22;5650;52.700;7.306;2023-03-01T11:42:56;6.70;99.90
11188;DHT22;5650;52.700;7.306;2023-03-01T11:45:47;6.70;99.90
11188;DHT22;5650;52.700;7.306;2023-03-01T11:48:43;6.70;99.90
11188;DHT22;5650;52.700;7.306;2023-03-01T11:51:23;6.70;99.90
11188;DHT22;5650;52.700;7.306;2023-03-01T11:54:12;6.60;99.90
11188;DHT22;5650;52.700;7.306;2023-03-01T11:56:50;6.60;99.90
11188;DHT22;5650;52.700;7.306;2023-03-01T11:59:50;6.50;99.90
11188;DHT22;5650;52.700;7.306;2023-03-01T12:05:54;6.60;99.90
11188;DHT22;5650;52.700;7.306;2023-03-01T12:08:37;6.70;99.90
11188;DHT22;5650;52.700;7.306;2023-03-01T12:11:14;6.70;99.90
11188;DHT22;5650;52.700;7.306;2023-03-01T12:14:15;6.70;99.90
11188;DHT22;5650;52.700;7.306;2023-03-01T12:17:01;6.80;99.90
11188;DHT22;5650;52.700;7.306;2023-03-01T12:19:40;6.80;99.90
11188;DHT22;5650;52.700;7.306;2023-03-01T12:22:25;7.00;99.90
11188;DHT22;5650;52.700;7.306;2023-03-01T12:25:16;7.00;99.90
11188;DHT22;5650;52.700;7.306;2023-03-01T12:28:21;7.00;99.90
11188;DHT22;5650;52.700;7.306;2023-03-01T12:31:30;7.10;99.90
11188;DHT22;5650;52.700;7.306;2023-03-01T12:34:17;7.20;99.90
11188;DHT22;5650;52.700;7.306;2023-03-01T12:37:11;7.30;99.90
11188;DHT22;5650;52.700;7.306;2023-03-01T12:39:50;7.30;99.90
11188;DHT22;5650;52.700;7.306;2023-03-01T12:42:28;7.30;99.90
11188;DHT22;5650;52.700;7.306;2023-03-01T12:45:12;7.30;99.90
11188;DHT22;5650;52.700;7.306;2023-03-01T12:47:58;7.30;99.90
11188;DHT22;5650;52.700;7.306;2023-03-01T12:50:40;7.30;99.90
11188;DHT22;5650;52.700;7.306;2023-03-01T12:53:24;7.30;99.90
11188;DHT22;5650;52.700;7.306;2023-03-01T12:55:54;7.40;99.90
11188;DHT22;5650;52.700;7.306;2023-03-01T12:58:27;7.40;99.90
11188;DHT22;5650;52.700;7.306;2023-03-01T13:01:10;7.40;99.90
11188;DHT22;5650;52.700;7.306;2023-03-01T13:04:04;7.40;99.90
11188;DHT22;5650;52.700;7.306;2023-03-01T13:06:41;7.40;99.90
11188;DHT22;5650;52.700;7.306;2023-03-01T13:09:19;7.40;99.90
11188;DHT22;5650;52.700;7.306;2023-03-01T13:11:48;7.40;99.90
11188;DHT22;5650;52.700;7.306;2023-03-01T13:14:37;7.40;99.90
11188;DHT22;5650;52.700;7.306;2023-03-01T13:17:29;7.50;99.90
11188;DHT22;5650;52.700;7.306;2023-03-01T13:20:00;7.60;99.90
11188;DHT22;5650;52.700;7.306;2023-03-01T13:22:34;7.50;99.90
11188;DHT22;5650;52.700;7.306;2023-03-01T13:25:13;7.60;99.90
11188;DHT22;5650;52.700;7.306;2023-03-01T13:27:43;7.60;99.90
11188;DHT22;5650;52.700;7.306;2023-03-01T13:30:41;7.60;99.90
11188;DHT22;5650;52.700;7.306;2023-03-01T13:33:44;7.60;99.90
11188;DHT22;5650;52.700;7.306;2023-03-01T13:36:45;7.70;99.90
11188;DHT22;5650;52.700;7.306;2023-03-01T13:39:30;7.70;99.90
11188;DHT22;5650;52.700;7.306;2023-03-01T13:42:25;7.70;99.90
11188;DHT22;5650;52.700;7.306;2023-03-01T13:44:49;7.70;99.90
11188;DHT22;5650;52.700;7.306;2023-03-01T13:47:19;7.60;99.90
11188;DHT22;5650;52.700;7.306;2023-03-01T13:49:51;7.60;99.90
11188;DHT22;5650;52.700;7.306;2023-03-01T13:55:23;7.70;99.90
11188;DHT22;5650;52.700;7.306;2023-03-01T13:57:55;7.70;99.90
11188;DHT22;5650;52.700;7.306;2023-03-01T14:00:41;7.80;99.90
11188;DHT22;5650;52.700;7.306;2023-03-01T14:03:13;7.80;99.90
11188;DHT22;5650;52.700;7.306;2023-03-01T14:05:42;7.80;99.90
11188;DHT22;5650;52.700;7.306;2023-03-01T14:08:31;7.90;99.90
11188;DHT22;5650;52.700;7.306;2023-03-01T14:11:37;7.80;99.90
11188;DHT22;5650;52.700;7.306;2023-03-01T14:14:28;7.80;99.90
11188;DHT22;5650;52.700;7.306;2023-03-01T14:20:09;7.80;99.90
11188;DHT22;5650;52.700;7.306;2023-03-01T14:22:40;7.80;99.90
11188;DHT22;5650;52.700;7.306;2023-03-01T14:25:27;7.80;99.90
11188;DHT22;5650;52.700;7.306;2023-03-01T14:28:02;7.80;99.90
11188;DHT22;5650;52.700;7.306;2023-03-01T14:30:34;7.80;99.90
11188;DHT22;5650;52.700;7.306;2023-03-01T14:33:19;7.80;99.90
11188;DHT22;5650;52.700;7.306;2023-03-01T14:36:06;7.80;99.90
11188;DHT22;5650;52.700;7.306;2023-03-01T14:38:36;7.70;99.90
11188;DHT22;5650;52.700;7.306;2023-03-01T14:41:06;7.70;99.90
11188;DHT22;5650;52.700;7.306;2023-03-01T14:43:43;7.70;99.90
11188;DHT22;5650;52.700;7.306;2023-03-01T14:46:28;7.70;99.90
11188;DHT22;5650;52.700;7.306;2023-03-01T14:49:01;7.80;99.90
11188;DHT22;5650;52.700;7.306;2023-03-01T14:51:36;7.80;99.90
11188;DHT22;5650;52.700;7.306;2023-03-01T14:54:13;7.80;99.90
11188;DHT22;5650;52.700;7.306;2023-03-01T14:56:46;7.80;99.90
11188;DHT22;5650;52.700;7.306;2023-03-01T14:59:15;7.80;99.90
11188;DHT22;5650;52.700;7.306;2023-03-01T15:01:43;7.80;99.90
11188;DHT22;5650;52.700;7.306;2023-03-01T15:04:12;7.80;99.90
11188;DHT22;5650;52.700;7.306;2023-03-01T15:06:46;7.80;99.90
11188;DHT22;5650;52.700;7.306;2023-03-01T15:09:15;7.80;99.90
11188;DHT22;5650;52.700;7.306;2023-03-01T15:11:43;7.80;99.90
11188;DHT22;5650;52.700;7.306;2023-03-01T15:14:38;7.70;99.90
11188;DHT22;5650;52.700;7.306;2023-03-01T15:17:21;7.70;99.90
11188;DHT22;5650;52.700;7.306;2023-03-01T15:19:51;7.70;99.90
11188;DHT22;5650;52.700;7.306;2023-03-01T15:22:21;7.70;99.90
11188;DHT22;5650;52.700;7.306;2023-03-01T15:24:49;7.70;99.90
11188;DHT22;5650;52.700;7.306;2023-03-01T15:27:21;7.70;99.90
11188;DHT22;5650;52.700;7.306;2023-03-01T15:29:56;7.70;99.90
11188;DHT22;5650;52.700;7.306;2023-03-01T15:32:29;7.70;99.90
11188;DHT22;5650;52.700;7.306;2023-03-01T15:34:57;7.60;99.90
11188;DHT22;5650;52.700;7.306;2023-03-01T15:37:40;7.60;99.90
11188;DHT22;5650;52.700;7.306;2023-03-01T15:40:20;7.60;99.90
11188;DHT22;5650;52.700;7.306;2023-03-01T15:42:59;7.60;99.90
11188;DHT22;5650;52.700;7.306;2023-03-01T15:45:32;7.60;99.90
11188;DHT22;5650;52.700;7.306;2023-03-01T15:48:04;7.60;99.90
11188;DHT22;5650;52.700;7.306;2023-03-01T15:50:33;7.60;99.90
11188;DHT22;5650;52.700;7.306;2023-03-01T15:53:05;7.50;99.90
11188;DHT22;5650;52.700;7.306;2023-03-01T15:55:33;7.50;99.90
11188;DHT22;5650;52.700;7.306;2023-03-01T15:58:03;7.50;99.90
11188;DHT22;5650;52.700;7.306;2023-03-01T16:00:33;7.50;99.90
11188;DHT22;5650;52.700;7.306;2023-03-01T16:03:01;7.50;99.90
11188;DHT22;5650;52.700;7.306;2023-03-01T16:05:31;7.40;99.90
11188;DHT22;5650;52.700;7.306;2023-03-01T16:08:01;7.40;99.90
11188;DHT22;5650;52.700;7.306;2023-03-01T16:10:32;7.40;99.90
11188;DHT22;5650;52.700;7.306;2023-03-01T16:13:00;7.40;99.90
11188;DHT22;5650;52.700;7.306;2023-03-01T16:15:30;7.30;99.90
11188;DHT22;5650;52.700;7.306;2023-03-01T16:17:59;7.30;99.90
11188;DHT22;5650;52.700;7.306;2023-03-01T16:20:27;7.30;99.90
11188;DHT22;5650;52.700;7.306;2023-03-01T16:22:55;7.20;99.90
11188;DHT22;5650;52.700;7.306;2023-03-01T16:25:25;7.20;99.90
11188;DHT22;5650;52.700;7.306;2023-03-01T16:27:53;7.10;99.90
11188;DHT22;5650;52.700;7.306;2023-03-01T16:30:22;7.10;99.90
11188;DHT22;5650;52.700;7.306;2023-03-01T16:32:50;7.10;99.90
11188;DHT22;5650;52.700;7.306;2023-03-01T16:35:20;7.00;99.90
11188;DHT22;5650;52.700;7.306;2023-03-01T16:37:49;7.00;99.90
11188;DHT22;5650;52.700;7.306;2023-03-01T16:40:20;6.90;99.90
11188;DHT22;5650;52.700;7.306;2023-03-01T16:42:58;6.90;99.90